createdAt,value
2019-01-23T00:01:09.288Z,22.07
2019-01-23T00:03:37.263Z,20.30
2019-01-23T00:06:04.803Z,22.20
2019-01-23T00:08:32.348Z,25.40
2019-01-23T00:10:59.861Z,25.10
2019-01-23T00:13:27.404Z,24.47
2019-01-23T00:15:56.171Z,26.20
2019-01-23T00:18:24.261Z,25.37
2019-01-23T00:20:52.655Z,22.70
2019-01-23T00:23:20.852Z,24.47
2019-01-23T00:25:49.386Z,25.10
2019-01-23T00:28:18.311Z,25.97
2019-01-23T00:30:46.512Z,24.07
2019-01-23T00:33:14.456Z,26.30
2019-01-23T00:35:42.491Z,25.97
2019-01-23T00:38:13.387Z,26.90
2019-01-23T00:40:41.238Z,23.60
2019-01-23T00:43:08.740Z,24.10
2019-01-23T00:45:36.293Z,24.37
2019-01-23T00:48:04.107Z,25.90
2019-01-23T00:50:31.967Z,24.47
2019-01-23T00:52:59.527Z,25.07
2019-01-23T00:55:27.034Z,26.50
2019-01-23T00:57:54.519Z,25.93
2019-01-23T01:00:23.541Z,23.60
2019-01-23T01:02:51.294Z,25.00
2019-01-23T01:05:19.029Z,25.83
2019-01-23T01:07:46.585Z,26.73
2019-01-23T01:10:16.625Z,25.43
2019-01-23T01:12:44.125Z,26.53
2019-01-23T01:15:13.568Z,26.30
2019-01-23T01:17:41.175Z,26.60
2019-01-23T01:20:09.511Z,25.67
2019-01-23T01:22:37.068Z,24.83
2019-01-23T01:25:06.911Z,25.77
2019-01-23T01:27:34.408Z,23.70
2019-01-23T01:30:02.148Z,24.93
2019-01-23T01:32:30.051Z,25.80
2019-01-23T01:34:57.546Z,26.20
2019-01-23T01:37:25.358Z,23.93
2019-01-23T01:39:52.928Z,23.80
2019-01-23T01:42:20.725Z,22.67
2019-01-23T01:44:48.271Z,25.40
2019-01-23T01:47:15.748Z,25.43
2019-01-23T01:49:43.340Z,22.27
2019-01-23T01:52:10.855Z,24.07
2019-01-23T01:54:38.368Z,23.80
2019-01-23T01:57:05.883Z,22.40
2019-01-23T01:59:33.668Z,25.07
2019-01-23T02:02:01.242Z,24.83
2019-01-23T02:04:28.869Z,23.20
2019-01-23T02:06:56.357Z,25.00
2019-01-23T02:09:23.859Z,25.33
2019-01-23T02:11:51.700Z,23.47
2019-01-23T02:14:19.564Z,23.13
2019-01-23T02:16:47.376Z,25.60
2019-01-23T02:19:14.864Z,24.10
2019-01-23T02:21:42.747Z,24.53
2019-01-23T02:24:10.211Z,23.97
2019-01-23T02:26:37.763Z,23.60
2019-01-23T02:29:09.506Z,21.20
2019-01-23T02:31:34.730Z,25.00
2019-01-23T02:34:02.165Z,27.70
2019-01-23T02:36:29.696Z,23.93
2019-01-23T02:38:57.256Z,22.10
2019-01-23T02:41:24.877Z,22.50
2019-01-23T02:43:52.461Z,22.80
2019-01-23T02:46:20.099Z,24.13
2019-01-23T02:48:47.693Z,23.20
2019-01-23T02:51:15.345Z,22.80
2019-01-23T02:53:42.944Z,27.53
2019-01-23T02:56:10.466Z,23.87
2019-01-23T02:58:37.983Z,21.47
2019-01-23T03:01:05.645Z,23.53
2019-01-23T03:03:33.609Z,23.50
2019-01-23T03:06:01.239Z,23.40
2019-01-23T03:08:28.871Z,22.83
2019-01-23T03:10:57.552Z,24.33
2019-01-23T03:13:25.179Z,24.13
2019-01-23T03:15:52.751Z,21.67
2019-01-23T03:18:20.284Z,21.83
2019-01-23T03:20:48.272Z,23.90
2019-01-23T03:23:15.821Z,23.23
2019-01-23T03:25:43.398Z,22.80
2019-01-23T03:28:11.011Z,23.73
2019-01-23T03:30:38.576Z,22.80
2019-01-23T03:33:06.147Z,21.77
2019-01-23T03:35:33.764Z,21.23
2019-01-23T03:38:01.594Z,24.40
2019-01-23T03:40:29.206Z,22.87
2019-01-23T03:42:56.844Z,22.23
2019-01-23T03:45:24.369Z,21.67
2019-01-23T03:47:51.912Z,23.67
2019-01-23T03:50:19.811Z,22.50
2019-01-23T03:52:47.380Z,22.87
2019-01-23T03:55:15.514Z,23.27
2019-01-23T03:57:43.208Z,23.30
2019-01-23T04:00:13.627Z,24.17
2019-01-23T04:02:41.558Z,23.23
2019-01-23T04:05:09.658Z,23.80
2019-01-23T04:07:37.216Z,24.00
2019-01-23T04:10:06.671Z,23.23
2019-01-23T04:12:34.248Z,22.87
2019-01-23T04:15:01.867Z,22.03
2019-01-23T04:17:29.435Z,23.07
2019-01-23T04:19:57.659Z,21.93
2019-01-23T04:22:25.253Z,22.13
2019-01-23T04:24:52.774Z,21.87
2019-01-23T04:27:20.312Z,22.47
2019-01-23T04:29:47.983Z,20.87
2019-01-23T04:32:15.859Z,24.00
2019-01-23T04:34:43.473Z,24.70
2019-01-23T04:37:11.125Z,24.67
2019-01-23T04:39:38.646Z,22.33
2019-01-23T04:42:06.150Z,24.57
2019-01-23T04:44:33.646Z,27.00
2019-01-23T04:47:01.184Z,25.97
2019-01-23T04:49:28.934Z,25.03
2019-01-23T04:52:06.551Z,24.60
2019-01-23T04:54:34.029Z,22.73
2019-01-23T04:57:01.574Z,23.37
2019-01-23T04:59:29.144Z,27.63
2019-01-23T05:01:56.734Z,23.97
2019-01-23T05:04:24.350Z,23.90
2019-01-23T05:06:51.941Z,26.87
2019-01-23T05:09:19.681Z,24.23
2019-01-23T05:11:47.568Z,23.73
2019-01-23T05:14:15.134Z,20.23
2019-01-23T05:16:42.682Z,25.27
2019-01-23T05:19:10.532Z,27.20
2019-01-23T05:21:38.034Z,25.00
2019-01-23T05:24:05.603Z,24.90
2019-01-23T05:26:33.132Z,26.73
2019-01-23T05:29:00.669Z,24.30
2019-01-23T05:31:28.207Z,24.70
2019-01-23T05:33:55.989Z,25.70
2019-01-23T05:36:23.857Z,24.87
2019-01-23T05:38:51.426Z,24.00
2019-01-23T05:41:19.523Z,29.00
2019-01-23T05:43:47.077Z,31.30
2019-01-23T05:46:14.629Z,28.77
2019-01-23T05:48:42.258Z,26.10
2019-01-23T05:51:10.061Z,25.07
2019-01-23T05:53:37.898Z,22.47
2019-01-23T05:56:05.591Z,24.50
2019-01-23T05:58:33.224Z,25.10
2019-01-23T06:01:00.738Z,24.90
2019-01-23T06:03:28.274Z,24.33
2019-01-23T06:05:55.830Z,26.70
2019-01-23T06:08:23.781Z,28.77
2019-01-23T06:10:51.406Z,28.53
2019-01-23T06:13:18.976Z,27.90
2019-01-23T06:15:46.517Z,28.10
2019-01-23T06:18:14.011Z,28.03
2019-01-23T06:20:41.685Z,28.30
2019-01-23T06:23:09.180Z,27.77
2019-01-23T06:25:36.809Z,28.20
2019-01-23T06:28:04.376Z,31.70
2019-01-23T06:30:32.068Z,25.83
2019-01-23T06:32:59.581Z,25.80
2019-01-23T06:35:27.223Z,23.63
2019-01-23T06:37:54.802Z,30.30
2019-01-23T06:40:22.370Z,27.70
2019-01-23T06:42:49.918Z,29.07
2019-01-23T06:45:17.825Z,26.97
2019-01-23T06:47:46.221Z,29.03
2019-01-23T06:50:15.553Z,29.00
2019-01-23T06:52:43.113Z,27.47
2019-01-23T06:55:11.062Z,27.63
2019-01-23T06:57:39.068Z,26.47
2019-01-23T07:00:16.895Z,27.63
2019-01-23T07:02:40.561Z,29.87
2019-01-23T07:05:10.906Z,27.43
2019-01-23T07:07:43.069Z,29.30
2019-01-23T07:10:14.171Z,29.40
2019-01-23T07:12:43.114Z,28.07
2019-01-23T07:15:11.684Z,27.63
2019-01-23T07:17:53.516Z,30.03
2019-01-23T07:20:33.137Z,31.00
2019-01-23T07:23:01.827Z,30.33
2019-01-23T07:25:41.317Z,29.73
2019-01-23T07:28:18.588Z,29.20
2019-01-23T07:30:46.756Z,30.17
2019-01-23T07:33:18.263Z,29.70
2019-01-23T07:36:21.708Z,30.27
2019-01-23T07:38:49.789Z,31.43
2019-01-23T07:41:20.983Z,30.17
2019-01-23T07:43:49.093Z,27.07
2019-01-23T07:46:17.595Z,28.60
2019-01-23T07:48:45.714Z,28.33
2019-01-23T07:51:13.762Z,29.40
2019-01-23T07:53:41.789Z,28.40
2019-01-23T07:56:12.254Z,30.00
2019-01-23T07:58:40.210Z,28.20
2019-01-23T08:01:08.879Z,30.47
2019-01-23T08:03:39.876Z,30.53
2019-01-23T08:06:08.256Z,31.60
2019-01-23T08:08:37.735Z,32.97
2019-01-23T08:11:06.134Z,29.53
2019-01-23T08:13:34.228Z,32.03
2019-01-23T08:16:02.037Z,31.93
2019-01-23T08:18:30.194Z,31.73
2019-01-23T08:20:59.072Z,30.53
2019-01-23T08:23:27.019Z,29.80
2019-01-23T08:25:54.928Z,30.10
2019-01-23T08:28:22.470Z,30.10
2019-01-23T08:30:50.061Z,31.40
2019-01-23T08:33:17.700Z,28.50
2019-01-23T08:35:45.413Z,28.93
2019-01-23T08:38:13.049Z,26.57
2019-01-23T08:40:41.749Z,24.90
2019-01-23T08:43:09.600Z,25.07
2019-01-23T08:45:37.248Z,27.97
2019-01-23T08:48:04.724Z,29.80
2019-01-23T08:50:43.975Z,30.67
2019-01-23T08:53:11.674Z,31.50
2019-01-23T08:55:39.190Z,29.50
2019-01-23T08:58:09.002Z,32.10
2019-01-23T09:00:36.540Z,29.17
2019-01-23T09:03:04.811Z,29.80
2019-01-23T09:05:32.368Z,29.53
2019-01-23T09:08:05.758Z,30.63
2019-01-23T09:10:35.554Z,31.67
2019-01-23T09:13:03.506Z,30.77
2019-01-23T09:15:31.052Z,28.80
2019-01-23T09:17:59.858Z,27.90
2019-01-23T09:20:27.454Z,30.70
2019-01-23T09:22:57.483Z,32.10
2019-01-23T09:25:25.208Z,31.00
2019-01-23T09:27:53.089Z,28.70
2019-01-23T09:30:30.053Z,29.70
2019-01-23T09:33:11.508Z,29.47
2019-01-23T09:36:11.208Z,29.53
2019-01-23T09:39:14.858Z,28.40
2019-01-23T09:41:58.080Z,31.67
2019-01-23T09:45:12.135Z,30.07
2019-01-23T09:48:02.280Z,32.33
2019-01-23T09:51:01.232Z,27.63
2019-01-23T09:53:54.818Z,29.53
2019-01-23T09:56:22.357Z,28.23
2019-01-23T09:58:50.020Z,28.37
2019-01-23T10:01:17.548Z,29.00
2019-01-23T10:03:47.239Z,26.03
2019-01-23T10:06:14.794Z,28.07
2019-01-23T10:08:43.599Z,25.27
2019-01-23T10:11:12.433Z,26.77
2019-01-23T10:13:40.071Z,29.43
2019-01-23T10:16:15.742Z,28.10
2019-01-23T10:18:43.301Z,27.90
2019-01-23T10:21:11.133Z,28.93
2019-01-23T10:23:40.511Z,25.10
2019-01-23T10:26:08.025Z,28.43
2019-01-23T10:28:36.708Z,25.37
2019-01-23T10:31:06.712Z,24.90
2019-01-23T10:33:33.687Z,26.03
2019-01-23T10:36:01.536Z,26.70
2019-01-23T10:38:29.515Z,26.00
2019-01-23T10:40:57.219Z,24.40
2019-01-23T10:43:30.786Z,27.80
2019-01-23T10:46:27.018Z,25.03
2019-01-23T10:51:56.530Z,24.97
2019-01-23T10:54:38.284Z,21.30
2019-01-23T10:57:07.984Z,24.03
2019-01-23T10:59:41.558Z,28.13
2019-01-23T11:02:10.043Z,27.63
2019-01-23T11:04:41.683Z,24.43
2019-01-23T11:07:10.594Z,25.00
2019-01-23T11:09:39.665Z,25.30
2019-01-23T11:12:12.259Z,23.67
2019-01-23T11:17:22.883Z,25.33
2019-01-23T11:19:51.882Z,25.50
2019-01-23T11:22:20.741Z,25.00
2019-01-23T11:24:49.143Z,25.67
2019-01-23T11:27:16.890Z,26.13
2019-01-23T11:29:44.926Z,25.83
2019-01-23T11:32:12.577Z,26.17
2019-01-23T11:34:42.257Z,29.27
2019-01-23T11:37:09.977Z,25.87
2019-01-23T11:39:37.743Z,28.80
2019-01-23T11:42:05.687Z,23.97
2019-01-23T11:44:33.318Z,26.47
2019-01-23T11:47:04.462Z,25.40
2019-01-23T11:49:32.446Z,28.23
2019-01-23T11:52:00.348Z,24.97
2019-01-23T11:54:28.285Z,26.70
2019-01-23T11:56:56.031Z,27.07
2019-01-23T11:59:24.820Z,25.40
2019-01-23T12:01:52.879Z,29.77
2019-01-23T12:04:20.677Z,27.47
2019-01-23T12:06:48.320Z,30.67
2019-01-23T12:09:15.973Z,29.47
2019-01-23T12:11:43.632Z,28.87
2019-01-23T12:14:11.364Z,31.37
2019-01-23T12:16:39.158Z,33.40
2019-01-23T12:19:07.284Z,32.80
2019-01-23T12:21:34.964Z,28.50
2019-01-23T12:24:02.704Z,23.37
2019-01-23T12:26:30.500Z,28.80
2019-01-23T12:28:58.313Z,30.27
2019-01-23T12:31:26.007Z,28.93
2019-01-23T12:33:54.947Z,27.60
2019-01-23T12:36:23.194Z,32.87
2019-01-23T12:38:51.188Z,27.80
2019-01-23T12:41:20.294Z,27.63
2019-01-23T12:43:47.985Z,29.47
2019-01-23T12:46:15.645Z,28.27
2019-01-23T12:48:43.358Z,26.57
2019-01-23T12:51:14.744Z,28.83
2019-01-23T12:53:42.591Z,28.17
2019-01-23T12:56:12.811Z,28.33
2019-01-23T12:58:40.548Z,27.13
2019-01-23T13:01:08.286Z,29.93
2019-01-23T13:03:36.524Z,28.23
2019-01-23T13:06:04.680Z,28.53
2019-01-23T13:08:34.912Z,28.47
2019-01-23T13:11:02.760Z,27.83
2019-01-23T13:13:30.469Z,25.30
2019-01-23T13:15:58.096Z,21.10
2019-01-23T13:18:25.804Z,27.60
2019-01-23T13:20:53.697Z,24.70
2019-01-23T13:23:21.563Z,30.97
2019-01-23T13:25:49.447Z,26.80
2019-01-23T13:28:17.252Z,27.60
2019-01-23T13:30:44.993Z,27.17
2019-01-23T13:33:12.744Z,23.13
2019-01-23T13:35:41.241Z,26.77
2019-01-23T13:38:12.797Z,23.17
2019-01-23T13:40:40.559Z,28.97
2019-01-23T13:43:08.295Z,28.30
2019-01-23T13:45:35.872Z,29.17
2019-01-23T13:48:04.772Z,27.30
2019-01-23T13:50:32.370Z,27.37
2019-01-23T13:53:00.015Z,25.23
2019-01-23T13:55:27.845Z,27.80
2019-01-23T13:57:56.809Z,27.67
2019-01-23T14:00:27.356Z,25.87
2019-01-23T14:02:55.283Z,26.53
2019-01-23T14:05:23.228Z,26.10
2019-01-23T14:07:51.056Z,27.23
2019-01-23T14:10:19.000Z,28.70
2019-01-23T14:12:48.036Z,23.27
2019-01-23T14:15:19.547Z,28.70
2019-01-23T14:17:47.268Z,24.17
2019-01-23T14:20:16.012Z,25.97
2019-01-23T14:22:44.037Z,23.13
2019-01-23T14:25:13.120Z,23.87
2019-01-23T14:27:41.162Z,20.93
2019-01-23T14:30:14.162Z,26.87
2019-01-23T14:32:41.780Z,27.47
2019-01-23T14:35:09.341Z,26.60
2019-01-23T14:37:37.530Z,25.93
2019-01-23T14:40:05.765Z,28.53
2019-01-23T14:42:36.807Z,21.13
2019-01-23T14:45:05.011Z,27.13
2019-01-23T14:47:32.736Z,25.13
2019-01-23T14:50:00.329Z,23.63
2019-01-23T14:52:27.999Z,22.37
2019-01-23T14:54:55.895Z,25.53
2019-01-23T14:57:23.890Z,23.80
2019-01-23T14:59:51.817Z,25.43
2019-01-23T15:02:19.581Z,23.60
2019-01-23T15:04:47.525Z,27.43
2019-01-23T15:07:16.138Z,27.37
2019-01-23T15:09:44.135Z,28.03
2019-01-23T15:12:26.696Z,25.00
2019-01-23T15:14:54.665Z,25.07
2019-01-23T15:17:22.292Z,30.23
2019-01-23T15:19:49.937Z,28.30
2019-01-23T15:22:17.621Z,28.77
2019-01-23T15:24:45.200Z,28.00
2019-01-23T15:27:12.774Z,26.07
2019-01-23T15:29:40.680Z,27.73
2019-01-23T15:32:08.339Z,28.17
2019-01-23T15:34:35.924Z,20.80
2019-01-23T15:37:03.873Z,26.83
2019-01-23T15:39:32.795Z,29.07
2019-01-23T15:42:00.686Z,28.53
2019-01-23T15:44:28.344Z,26.83
2019-01-23T15:46:55.928Z,29.20
2019-01-23T15:49:23.793Z,27.40
2019-01-23T15:51:51.693Z,27.83
2019-01-23T15:54:19.569Z,30.73
2019-01-23T15:56:47.666Z,29.00
2019-01-23T15:59:18.801Z,29.00
2019-01-23T16:01:47.134Z,27.37
2019-01-23T16:04:16.222Z,28.03
2019-01-23T16:06:44.382Z,22.17
2019-01-23T16:09:11.941Z,27.60
2019-01-23T16:11:40.502Z,26.23
2019-01-23T16:14:08.697Z,28.93
2019-01-23T16:16:53.507Z,27.27
2019-01-23T16:19:32.006Z,27.20
2019-01-23T16:22:22.784Z,25.77
2019-01-23T17:10:09.780Z,29.43
2019-01-23T17:16:56.333Z,29.00
2019-01-23T17:22:44.974Z,29.07
2019-01-23T17:40:11.798Z,31.20
2019-01-23T17:46:46.622Z,29.53
2019-01-23T17:57:26.037Z,30.67
2019-01-23T18:00:04.103Z,30.83
2019-01-23T18:02:30.214Z,31.97
2019-01-23T18:05:15.019Z,33.23
2019-01-23T18:10:33.241Z,34.10
2019-01-23T18:14:14.731Z,31.40
2019-01-23T18:17:32.346Z,21.47
2019-01-23T18:23:18.785Z,31.70
2019-01-23T18:26:05.737Z,31.53
2019-01-23T18:28:34.841Z,33.90
2019-01-23T18:31:50.333Z,32.20
2019-01-23T18:35:05.281Z,31.20
2019-01-23T18:42:26.839Z,34.97
2019-01-23T18:45:36.412Z,34.23
2019-01-23T18:48:30.778Z,33.97
2019-01-23T18:51:32.772Z,31.87
2019-01-23T18:54:03.339Z,33.50
2019-01-23T18:56:40.559Z,34.90
2019-01-23T18:59:15.898Z,34.90
2019-01-23T19:02:01.493Z,36.47
2019-01-23T19:04:35.062Z,36.00
2019-01-23T19:07:06.191Z,36.53
2019-01-23T19:09:37.915Z,36.10
2019-01-23T19:12:17.816Z,36.23
2019-01-23T19:14:45.701Z,34.20
2019-01-23T19:17:13.656Z,36.47
2019-01-23T19:19:41.925Z,34.60
2019-01-23T19:22:09.844Z,33.37
2019-01-23T19:24:37.695Z,36.70
2019-01-23T19:27:05.568Z,31.87
2019-01-23T19:29:33.470Z,31.97
2019-01-23T19:32:01.626Z,35.20
2019-01-23T19:34:29.635Z,33.60
2019-01-23T19:36:58.346Z,33.97
2019-01-23T19:39:31.117Z,33.73
2019-01-23T19:41:59.554Z,32.73
2019-01-23T19:44:28.004Z,34.00
2019-01-23T19:46:56.952Z,32.77
2019-01-23T19:49:24.643Z,38.80
2019-01-23T19:52:02.899Z,30.20
2019-01-23T19:54:33.492Z,33.80
2019-01-23T19:57:14.213Z,25.13
2019-01-23T19:59:41.866Z,31.80
2019-01-23T20:02:09.454Z,27.57
2019-01-23T20:04:38.165Z,31.80
2019-01-23T20:07:09.050Z,32.90
2019-01-23T20:09:37.517Z,32.13
2019-01-23T20:12:05.262Z,31.37
2019-01-23T20:14:33.159Z,29.57
2019-01-23T20:17:01.611Z,33.17
2019-01-23T20:19:31.026Z,34.43
2019-01-23T20:21:59.093Z,32.13
2019-01-23T20:24:27.579Z,31.87
2019-01-23T20:26:55.320Z,31.27
2019-01-23T20:29:23.493Z,33.07
2019-01-23T20:31:51.825Z,29.60
2019-01-23T20:34:20.326Z,30.87
2019-01-23T20:36:51.275Z,32.67
2019-01-23T20:39:22.376Z,32.83
2019-01-23T20:41:51.342Z,30.07
2019-01-23T20:44:23.123Z,36.40
2019-01-23T20:46:56.875Z,29.33
2019-01-23T20:49:27.294Z,30.30
2019-01-23T20:51:56.590Z,27.37
2019-01-23T20:54:28.951Z,29.87
2019-01-23T20:57:08.934Z,31.30
2019-01-23T20:59:47.305Z,29.07
2019-01-23T21:02:17.676Z,28.87
2019-01-23T21:04:48.306Z,31.30
2019-01-23T21:07:23.444Z,29.60
2019-01-23T21:09:54.660Z,29.00
2019-01-23T21:12:28.861Z,31.67
2019-01-23T21:14:58.604Z,31.97
2019-01-23T21:17:38.770Z,29.97
2019-01-23T21:20:07.590Z,31.30
2019-01-23T21:22:36.072Z,31.50
2019-01-23T21:25:07.246Z,34.73
2019-01-23T21:27:35.318Z,33.23
2019-01-23T21:30:06.483Z,33.97
2019-01-23T21:32:35.445Z,36.57
2019-01-23T21:35:10.421Z,32.53
2019-01-23T21:37:38.888Z,34.93
2019-01-23T21:40:22.142Z,34.10
2019-01-23T21:43:02.741Z,33.63
2019-01-23T21:45:47.930Z,34.50
2019-01-23T21:48:28.484Z,35.20
2019-01-23T21:50:57.884Z,32.17
2019-01-23T21:53:26.185Z,33.13
2019-01-23T21:55:55.265Z,31.70
2019-01-23T21:58:23.804Z,33.00
2019-01-23T22:01:03.859Z,36.07
2019-01-23T22:03:32.980Z,33.73
2019-01-23T22:06:33.488Z,34.00
2019-01-23T22:09:01.358Z,33.40
2019-01-23T22:11:31.074Z,32.53
2019-01-23T22:14:01.053Z,36.10
2019-01-23T22:16:34.626Z,33.27
2019-01-23T22:19:02.851Z,34.10
2019-01-23T22:21:31.021Z,30.97
2019-01-23T22:23:59.074Z,38.40
2019-01-23T22:26:27.601Z,38.37
2019-01-23T22:29:01.621Z,36.00
2019-01-23T22:31:30.247Z,38.10
2019-01-23T22:34:02.217Z,35.37
2019-01-23T22:36:37.768Z,36.97
2019-01-23T22:39:08.287Z,37.33
2019-01-23T22:41:38.635Z,33.33
2019-01-23T22:44:06.747Z,36.27
2019-01-23T22:46:35.285Z,35.87
2019-01-23T22:49:04.251Z,35.50
2019-01-23T22:51:32.359Z,34.70
2019-01-23T22:54:08.584Z,33.30
2019-01-23T22:56:37.011Z,39.80
2019-01-23T22:59:05.009Z,34.43
2019-01-23T23:01:33.251Z,36.23
2019-01-23T23:04:03.435Z,33.80
2019-01-23T23:06:31.019Z,35.43
2019-01-23T23:08:58.911Z,37.13
2019-01-23T23:11:27.210Z,34.00
2019-01-23T23:13:54.819Z,34.43
2019-01-23T23:16:22.674Z,34.97
2019-01-23T23:18:50.373Z,34.53
2019-01-23T23:21:18.310Z,34.77
2019-01-23T23:23:50.337Z,35.33
2019-01-23T23:26:16.126Z,35.20
2019-01-23T23:28:46.197Z,35.57
2019-01-23T23:31:14.292Z,37.60
2019-01-23T23:33:43.350Z,34.20
2019-01-23T23:36:13.202Z,37.27
2019-01-23T23:38:40.922Z,35.70
2019-01-23T23:41:15.524Z,33.40
2019-01-23T23:43:43.245Z,34.00
2019-01-23T23:46:11.211Z,35.17
2019-01-23T23:48:39.430Z,32.60
2019-01-23T23:51:06.969Z,34.57
2019-01-23T23:53:34.758Z,36.77
2019-01-23T23:56:02.657Z,33.40
2019-01-23T23:58:30.526Z,36.00
